createdAt,value
2022-08-05T00:00:19.550Z,21.31
2022-08-05T00:02:51.809Z,21.27
2022-08-05T00:06:02.844Z,21.39
2022-08-05T00:08:34.129Z,21.31
2022-08-05T00:10:56.609Z,21.32
2022-08-05T00:13:38.476Z,21.40
2022-08-05T00:16:09.207Z,21.38
2022-08-05T00:18:38.311Z,21.44
2022-08-05T00:21:06.516Z,21.32
2022-08-05T00:23:46.894Z,21.37
2022-08-05T00:26:20.896Z,21.41
2022-08-05T00:28:49.348Z,21.36
2022-08-05T00:31:16.032Z,21.36
2022-08-05T00:34:54.150Z,21.34
2022-08-05T00:37:11.496Z,21.26
2022-08-05T00:39:15.420Z,21.23
2022-08-05T00:41:46.823Z,21.32
2022-08-05T00:44:18.979Z,21.37
2022-08-05T00:46:47.390Z,21.31
2022-08-05T00:49:20.917Z,21.25
2022-08-05T00:51:50.224Z,21.12
2022-08-05T00:54:18.676Z,21.09
2022-08-05T00:56:51.494Z,21.05
2022-08-05T00:59:18.558Z,21.11
2022-08-05T01:01:48.651Z,21.15
2022-08-05T01:04:16.046Z,21.15
2022-08-05T01:06:51.689Z,21.14
2022-08-05T01:09:20.026Z,21.21
2022-08-05T01:11:50.741Z,21.19
2022-08-05T01:14:27.940Z,21.26
2022-08-05T01:17:21.515Z,21.31
2022-08-05T01:20:00.913Z,21.34
2022-08-05T01:22:43.042Z,21.30
2022-08-05T01:25:22.536Z,21.27
2022-08-05T01:28:19.913Z,21.28
2022-08-05T01:30:59.488Z,21.25
2022-08-05T01:33:35.987Z,21.29
2022-08-05T01:36:13.170Z,21.28
2022-08-05T01:38:44.734Z,21.22
2022-08-05T01:41:14.766Z,21.24
2022-08-05T01:43:42.242Z,21.15
2022-08-05T01:46:41.212Z,21.17
2022-08-05T01:48:58.410Z,21.14
2022-08-05T01:51:29.352Z,21.12
2022-08-05T01:53:59.113Z,21.07
2022-08-05T01:58:09.564Z,21.08
2022-08-05T01:59:22.430Z,21.04
2022-08-05T02:01:54.866Z,21.07
2022-08-05T02:04:23.727Z,21.10
2022-08-05T02:06:50.781Z,21.10
2022-08-05T02:09:17.284Z,21.12
2022-08-05T02:12:35.241Z,21.09
2022-08-05T02:15:14.780Z,21.01
2022-08-05T02:18:31.053Z,20.93
2022-08-05T02:20:47.952Z,20.91
2022-08-05T02:23:20.124Z,20.95
2022-08-05T02:25:50.396Z,20.92
2022-08-05T02:28:28.941Z,20.91
2022-08-05T02:31:05.834Z,20.93
2022-08-05T02:33:42.035Z,20.90
2022-08-05T02:36:13.673Z,20.83
2022-08-05T02:38:52.815Z,20.84
2022-08-05T02:41:22.910Z,20.77
2022-08-05T02:44:06.524Z,20.76
2022-08-05T02:46:53.206Z,20.74
2022-08-05T02:49:40.409Z,20.69
2022-08-05T02:52:29.904Z,20.69
2022-08-05T02:54:58.682Z,20.63
2022-08-05T02:58:11.378Z,20.58
2022-08-05T03:00:16.861Z,20.54
2022-08-05T03:02:46.557Z,20.56
2022-08-05T03:05:15.068Z,20.59
2022-08-05T03:08:06.609Z,20.55
2022-08-05T03:10:29.654Z,20.55
2022-08-05T03:15:24.872Z,20.53
2022-08-05T03:17:55.844Z,20.52
2022-08-05T03:20:24.283Z,20.54
2022-08-05T03:22:52.019Z,20.52
2022-08-05T03:25:33.268Z,20.51
2022-08-05T03:28:08.839Z,20.50
2022-08-05T03:30:41.093Z,20.47
2022-08-05T03:33:09.331Z,20.40
2022-08-05T03:35:40.707Z,20.38
2022-08-05T03:38:10.872Z,20.36
2022-08-05T03:40:40.967Z,20.39
2022-08-05T03:43:58.926Z,20.36
2022-08-05T03:45:57.695Z,20.31
2022-08-05T03:48:27.220Z,20.28
2022-08-05T03:52:37.397Z,20.27
2022-08-05T03:55:51.172Z,20.16
2022-08-05T03:56:50.235Z,20.13
2022-08-05T03:59:26.063Z,20.12
2022-08-05T04:01:59.084Z,20.16
2022-08-05T04:04:27.905Z,20.15
2022-08-05T04:06:55.489Z,20.15
2022-08-05T04:09:26.127Z,20.18
2022-08-05T04:11:53.923Z,20.19
2022-08-05T04:14:30.663Z,20.22
2022-08-05T04:16:59.894Z,20.23
2022-08-05T04:19:28.653Z,20.22
2022-08-05T04:22:10.358Z,20.24
2022-08-05T04:24:52.438Z,20.20
2022-08-05T04:27:19.797Z,20.19
2022-08-05T04:30:07.831Z,20.17
2022-08-05T04:32:35.590Z,20.18
2022-08-05T04:35:03.529Z,20.18
2022-08-05T04:38:00.608Z,20.20
2022-08-05T04:40:19.401Z,20.10
2022-08-05T04:42:46.373Z,20.12
2022-08-05T04:45:23.030Z,20.15
2022-08-05T04:48:07.210Z,20.23
2022-08-05T04:51:02.614Z,20.26
2022-08-05T04:53:35.535Z,20.29
2022-08-05T04:56:33.099Z,20.31
2022-08-05T04:58:49.629Z,20.29
2022-08-05T05:02:06.233Z,20.30
2022-08-05T05:04:03.138Z,20.31
2022-08-05T05:06:40.020Z,20.26
2022-08-05T05:09:14.022Z,20.23
2022-08-05T05:11:53.034Z,20.25
2022-08-05T05:14:31.645Z,20.22
2022-08-05T05:17:01.451Z,20.21
2022-08-05T05:19:36.806Z,20.19
2022-08-05T05:22:23.591Z,20.22
2022-08-05T05:24:57.794Z,20.24
2022-08-05T05:27:44.793Z,20.23
2022-08-05T05:30:28.899Z,20.19
2022-08-05T05:33:00.465Z,20.15
2022-08-05T05:35:34.238Z,20.44
2022-08-05T05:38:05.474Z,20.75
2022-08-05T05:40:32.702Z,20.99
2022-08-05T05:43:02.152Z,21.16
2022-08-05T05:45:29.197Z,21.14
2022-08-05T05:48:06.246Z,21.06
2022-08-05T05:50:44.025Z,21.23
2022-08-05T05:53:21.131Z,21.42
2022-08-05T05:55:52.264Z,21.60
2022-08-05T05:58:32.013Z,21.70
2022-08-05T06:01:13.093Z,21.62
2022-08-05T06:04:00.469Z,21.66
2022-08-05T06:06:30.744Z,21.69
2022-08-05T06:08:58.142Z,21.60
2022-08-05T06:11:24.655Z,21.48
2022-08-05T06:13:54.089Z,21.46
2022-08-05T06:16:29.448Z,21.55
2022-08-05T06:19:01.223Z,21.72
2022-08-05T06:21:35.875Z,22.01
2022-08-05T06:24:11.440Z,22.29
2022-08-05T06:26:52.334Z,22.56
2022-08-05T06:29:25.481Z,22.59
2022-08-05T06:32:21.220Z,22.26
2022-08-05T06:34:56.673Z,22.07
2022-08-05T06:37:39.431Z,22.08
2022-08-05T06:40:18.286Z,22.15
2022-08-05T06:42:48.332Z,21.86
2022-08-05T06:45:21.051Z,21.89
2022-08-05T06:48:35.995Z,21.83
2022-08-05T06:50:35.235Z,21.87
2022-08-05T06:53:11.461Z,21.84
2022-08-05T06:55:46.369Z,21.95
2022-08-05T06:58:20.136Z,22.01
2022-08-05T07:01:00.577Z,22.03
2022-08-05T07:03:32.884Z,21.93
2022-08-05T07:06:06.266Z,22.46
2022-08-05T07:08:47.609Z,23.08
2022-08-05T07:11:22.160Z,23.22
2022-08-05T07:14:08.300Z,22.95
2022-08-05T07:18:02.125Z,22.78
2022-08-05T07:22:27.772Z,22.68
2022-08-05T07:24:56.925Z,22.74
2022-08-05T07:27:25.197Z,22.75
2022-08-05T07:30:24.543Z,22.58
2022-08-05T07:32:43.221Z,22.39
2022-08-05T07:36:02.995Z,22.33
2022-08-05T07:37:58.487Z,22.42
2022-08-05T07:40:32.888Z,22.52
2022-08-05T07:42:59.881Z,22.51
2022-08-05T07:45:57.586Z,22.69
2022-08-05T07:49:01.396Z,23.20
2022-08-05T07:51:22.983Z,23.49
2022-08-05T07:53:51.276Z,23.43
2022-08-05T07:56:39.017Z,23.38
2022-08-05T07:59:05.107Z,23.29
2022-08-05T08:01:35.170Z,23.32
2022-08-05T08:04:07.953Z,23.36
2022-08-05T08:06:34.491Z,23.39
2022-08-05T08:09:00.957Z,23.55
2022-08-05T08:11:49.505Z,23.49
2022-08-05T08:14:17.510Z,23.70
2022-08-05T08:16:50.695Z,24.16
2022-08-05T08:20:00.468Z,24.64
2022-08-05T08:22:05.398Z,24.99
2022-08-05T08:24:41.482Z,25.31
2022-08-05T08:27:18.627Z,25.61
2022-08-05T08:30:06.037Z,25.68
2022-08-05T08:32:34.197Z,26.17
2022-08-05T08:35:07.531Z,26.19
2022-08-05T08:37:40.383Z,26.09
2022-08-05T08:40:12.626Z,26.05
2022-08-05T08:42:46.647Z,26.27
2022-08-05T08:45:26.662Z,26.64
2022-08-05T08:48:10.711Z,27.27
2022-08-05T08:51:22.997Z,27.29
2022-08-05T08:53:38.130Z,27.71
2022-08-05T08:56:11.009Z,27.67
2022-08-05T08:58:44.503Z,27.26
2022-08-05T09:01:16.217Z,26.73
2022-08-05T09:03:48.204Z,27.04
2022-08-05T09:06:21.226Z,27.51
2022-08-05T09:08:51.403Z,27.76
2022-08-05T09:11:17.959Z,28.01
2022-08-05T09:14:54.407Z,28.07
2022-08-05T09:16:51.729Z,27.78
2022-08-05T09:19:19.005Z,27.93
2022-08-05T09:22:23.368Z,27.95
2022-08-05T09:24:42.524Z,28.17
2022-08-05T09:27:09.610Z,28.07
2022-08-05T09:29:47.640Z,28.14
2022-08-05T09:32:46.044Z,28.64
2022-08-05T09:35:12.758Z,28.83
2022-08-05T09:38:12.829Z,29.00
2022-08-05T09:40:44.562Z,29.17
2022-08-05T09:43:40.503Z,29.09
2022-08-05T09:46:27.521Z,28.41
2022-08-05T09:49:08.272Z,28.31
2022-08-05T09:51:42.248Z,28.77
2022-08-05T09:54:09.285Z,29.15
2022-08-05T09:56:38.028Z,28.62
2022-08-05T09:59:16.850Z,29.12
2022-08-05T10:01:46.501Z,29.47
2022-08-05T10:04:16.205Z,29.92
2022-08-05T10:06:59.252Z,29.57
2022-08-05T10:09:28.180Z,29.21
2022-08-05T10:12:30.374Z,29.06
2022-08-05T10:15:13.918Z,29.38
2022-08-05T10:17:54.508Z,30.14
2022-08-05T10:20:25.349Z,30.55
2022-08-05T10:22:52.493Z,30.02
2022-08-05T10:25:19.671Z,29.94
2022-08-05T10:28:09.744Z,30.34
2022-08-05T10:32:47.699Z,30.60
2022-08-05T10:33:25.632Z,30.56
2022-08-05T10:35:59.775Z,30.45
2022-08-05T10:38:28.801Z,30.66
2022-08-05T10:41:13.645Z,30.43
2022-08-05T10:43:54.390Z,30.67
2022-08-05T10:46:24.122Z,30.27
2022-08-05T10:49:05.053Z,30.97
2022-08-05T10:52:03.336Z,30.76
2022-08-05T10:54:56.745Z,31.05
2022-08-05T10:57:32.410Z,30.75
2022-08-05T11:00:09.943Z,30.89
2022-08-05T11:03:25.002Z,30.80
2022-08-05T11:06:22.317Z,30.86
2022-08-05T11:09:32.437Z,31.03
2022-08-05T11:12:26.634Z,31.28
2022-08-05T11:15:20.490Z,30.55
2022-08-05T11:18:07.342Z,30.55
2022-08-05T11:20:44.119Z,30.99
2022-08-05T11:24:04.787Z,31.51
2022-08-05T11:26:32.829Z,31.97
2022-08-05T11:29:11.879Z,31.89
2022-08-05T11:31:57.909Z,31.78
2022-08-05T11:34:51.998Z,30.89
2022-08-05T11:38:37.340Z,30.35
2022-08-05T11:41:03.482Z,29.28
2022-08-05T11:44:06.252Z,28.52
2022-08-05T11:46:34.903Z,28.03
2022-08-05T11:49:02.628Z,28.61
2022-08-05T11:51:44.320Z,29.03
2022-08-05T11:54:33.094Z,28.90
2022-08-05T11:57:02.174Z,28.36
2022-08-05T11:59:49.638Z,27.90
2022-08-05T12:02:24.049Z,27.60
2022-08-05T12:05:18.271Z,27.31
2022-08-05T12:08:10.191Z,27.55
2022-08-05T12:10:43.221Z,27.44
2022-08-05T12:13:27.747Z,27.33
2022-08-05T12:16:15.736Z,27.26
2022-08-05T12:18:49.426Z,27.21
2022-08-05T12:21:26.947Z,26.67
2022-08-05T12:24:00.127Z,26.61
2022-08-05T12:26:45.096Z,26.53
2022-08-05T12:29:23.480Z,26.51
2022-08-05T12:31:53.097Z,26.39
2022-08-05T12:34:23.916Z,26.26
2022-08-05T12:36:53.519Z,26.31
2022-08-05T12:39:23.607Z,26.19
2022-08-05T12:41:59.641Z,26.30
2022-08-05T12:44:33.439Z,26.45
2022-08-05T12:47:02.496Z,26.20
2022-08-05T12:50:03.201Z,26.20
2022-08-05T12:52:39.679Z,26.29
2022-08-05T12:55:25.529Z,26.30
2022-08-05T12:58:50.507Z,26.09
2022-08-05T13:02:02.841Z,26.22
2022-08-05T13:03:32.185Z,26.23
2022-08-05T13:06:00.824Z,26.71
2022-08-05T13:08:30.048Z,26.77
2022-08-05T13:11:04.107Z,26.86
2022-08-05T13:14:05.886Z,26.96
2022-08-05T13:16:19.526Z,26.84
2022-08-05T13:18:58.373Z,27.29
2022-08-05T13:21:27.900Z,26.70
2022-08-05T13:23:54.582Z,26.45
2022-08-05T13:26:29.866Z,26.23
2022-08-05T13:28:57.152Z,26.63
2022-08-05T13:31:33.772Z,26.49
2022-08-05T13:34:24.949Z,26.52
2022-08-05T13:36:53.521Z,26.44
2022-08-05T13:40:14.334Z,25.97
2022-08-05T13:42:07.197Z,25.80
2022-08-05T13:44:35.786Z,25.69
2022-08-05T13:47:08.616Z,25.56
2022-08-05T13:49:35.701Z,25.43
2022-08-05T13:52:19.428Z,25.40
2022-08-05T13:54:56.517Z,25.30
2022-08-05T13:57:26.078Z,25.35
2022-08-05T14:00:13.121Z,25.90
2022-08-05T14:02:39.737Z,25.94
2022-08-05T14:05:15.316Z,26.13
2022-08-05T14:08:00.561Z,25.95
2022-08-05T14:10:32.376Z,26.01
2022-08-05T14:12:59.574Z,25.63
2022-08-05T14:16:09.044Z,25.66
2022-08-05T14:18:14.821Z,25.54
2022-08-05T14:20:48.004Z,25.92
2022-08-05T14:23:25.102Z,26.47
2022-08-05T14:25:58.426Z,26.74
2022-08-05T14:28:27.872Z,26.32
2022-08-05T14:30:55.574Z,25.68
2022-08-05T14:33:22.659Z,25.44
2022-08-05T14:35:51.545Z,25.27
2022-08-05T14:38:32.267Z,25.72
2022-08-05T14:41:06.466Z,25.98
2022-08-05T14:43:58.986Z,25.91
2022-08-05T14:46:22.385Z,25.89
2022-08-05T14:48:54.494Z,25.62
2022-08-05T14:51:21.159Z,25.57
2022-08-05T14:54:26.306Z,25.61
2022-08-05T14:56:36.217Z,24.99
2022-08-05T14:59:04.858Z,24.93
2022-08-05T15:01:47.205Z,24.50
2022-08-05T15:04:17.674Z,24.59
2022-08-05T15:06:49.414Z,24.47
2022-08-05T15:09:17.187Z,24.42
2022-08-05T15:12:04.349Z,24.60
2022-08-05T15:14:36.752Z,24.48
2022-08-05T15:17:46.021Z,24.53
2022-08-05T15:20:04.452Z,24.53
2022-08-05T15:22:30.945Z,24.57
2022-08-05T15:25:00.495Z,24.50
2022-08-05T15:27:38.576Z,24.57
2022-08-05T15:30:10.934Z,24.69
2022-08-05T15:32:40.936Z,24.38
2022-08-05T15:35:10.796Z,24.60
2022-08-05T15:38:32.842Z,24.78
2022-08-05T15:40:59.881Z,24.44
2022-08-05T15:43:20.039Z,24.42
2022-08-05T15:45:48.037Z,24.42
2022-08-05T15:48:28.222Z,24.42
2022-08-05T15:50:54.667Z,24.32
2022-08-05T15:53:23.101Z,24.13
2022-08-05T15:56:01.985Z,23.93
2022-08-05T15:58:35.743Z,23.77
2022-08-05T16:01:16.299Z,23.71
2022-08-05T16:03:44.916Z,23.60
2022-08-05T16:06:15.264Z,23.69
2022-08-05T16:08:47.229Z,23.39
2022-08-05T16:11:14.258Z,23.34
2022-08-05T16:13:41.106Z,23.28
2022-08-05T16:16:07.704Z,23.06
2022-08-05T16:23:53.521Z,23.12
2022-08-05T16:26:26.365Z,23.02
2022-08-05T16:28:54.387Z,22.86
2022-08-05T16:31:21.188Z,22.58
2022-08-05T16:33:47.626Z,22.72
2022-08-05T16:36:14.162Z,22.78
2022-08-05T16:38:55.210Z,22.81
2022-08-05T16:42:14.626Z,22.75
2022-08-05T16:44:10.233Z,22.82
2022-08-05T16:46:41.110Z,22.80
2022-08-05T16:49:09.987Z,22.96
2022-08-05T16:51:42.921Z,22.99
2022-08-05T16:54:28.608Z,22.72
2022-08-05T16:56:58.484Z,22.53
2022-08-05T16:59:25.078Z,22.53
2022-08-05T17:01:57.288Z,22.57
2022-08-05T17:04:26.381Z,22.33
2022-08-05T17:06:55.231Z,22.37
2022-08-05T17:09:26.922Z,22.22
2022-08-05T17:11:59.830Z,22.28
2022-08-05T17:14:37.602Z,22.23
2022-08-05T17:17:06.657Z,22.20
2022-08-05T17:19:43.780Z,22.11
2022-08-05T17:22:24.390Z,22.01
2022-08-05T17:24:57.822Z,22.02
2022-08-05T17:27:33.664Z,21.95
2022-08-05T17:30:02.647Z,21.87
2022-08-05T17:32:29.870Z,21.89
2022-08-05T17:34:58.131Z,21.82
2022-08-05T17:37:40.744Z,21.74
2022-08-05T17:40:12.407Z,21.54
2022-08-05T17:42:51.233Z,21.42
2022-08-05T17:45:22.151Z,21.47
2022-08-05T17:47:55.452Z,21.40
2022-08-05T17:50:29.504Z,21.38
2022-08-05T17:53:01.264Z,21.28
2022-08-05T17:55:38.022Z,21.23
2022-08-05T17:58:12.628Z,21.14
2022-08-05T18:00:47.580Z,21.10
2022-08-05T18:03:58.838Z,21.10
2022-08-05T18:06:11.119Z,20.91
2022-08-05T18:08:38.994Z,20.93
2022-08-05T18:11:11.837Z,20.82
2022-08-05T18:13:51.599Z,20.84
2022-08-05T18:16:20.372Z,20.84
2022-08-05T18:18:48.018Z,20.81
2022-08-05T18:21:21.122Z,20.78
2022-08-05T18:23:49.987Z,20.73
2022-08-05T18:26:21.061Z,20.71
2022-08-05T18:28:54.433Z,20.66
2022-08-05T18:31:21.496Z,20.59
2022-08-05T18:33:49.731Z,20.60
2022-08-05T18:36:19.182Z,20.41
2022-08-05T18:38:46.452Z,20.43
2022-08-05T18:41:56.682Z,20.38
2022-08-05T18:44:05.769Z,20.28
2022-08-05T18:46:34.316Z,20.20
2022-08-05T18:49:20.892Z,20.27
2022-08-05T18:52:10.851Z,20.13
2022-08-05T18:54:41.323Z,20.09
2022-08-05T18:57:15.304Z,20.00
2022-08-05T19:00:01.374Z,19.95
2022-08-05T19:02:29.010Z,19.97
2022-08-05T19:05:02.114Z,19.93
2022-08-05T19:07:47.629Z,19.84
2022-08-05T19:10:15.051Z,19.70
2022-08-05T19:12:46.093Z,19.67
2022-08-05T19:15:57.647Z,19.67
2022-08-05T19:18:09.814Z,19.58
2022-08-05T19:20:41.608Z,19.48
2022-08-05T19:24:04.170Z,19.43
2022-08-05T19:26:03.321Z,19.38
2022-08-05T19:28:33.619Z,19.43
2022-08-05T19:31:00.861Z,19.44
2022-08-05T19:33:35.937Z,19.45
2022-08-05T19:36:09.703Z,19.36
2022-08-05T19:38:43.775Z,19.37
2022-08-05T19:41:10.444Z,19.36
2022-08-05T19:44:06.580Z,19.41
2022-08-05T19:46:30.213Z,19.39
2022-08-05T19:49:03.313Z,19.40
2022-08-05T19:51:59.778Z,19.35
2022-08-05T19:54:26.844Z,19.32
2022-08-05T19:56:59.644Z,19.18
2022-08-05T19:59:56.102Z,19.15
2022-08-05T20:02:17.581Z,19.10
2022-08-05T20:04:46.162Z,19.06
2022-08-05T20:07:47.311Z,19.07
2022-08-05T20:10:11.804Z,19.07
2022-08-05T20:12:46.328Z,19.07
2022-08-05T20:15:15.850Z,19.03
2022-08-05T20:18:04.142Z,18.97
2022-08-05T20:20:37.779Z,18.93
2022-08-05T20:23:05.409Z,18.91
2022-08-05T20:25:33.859Z,18.85
2022-08-05T20:28:13.674Z,18.84
2022-08-05T20:30:40.926Z,18.82
2022-08-05T20:33:08.687Z,18.81
2022-08-05T20:35:40.514Z,18.79
2022-08-05T20:38:11.909Z,18.75
2022-08-05T20:40:50.368Z,18.71
2022-08-05T20:43:17.411Z,18.66
2022-08-05T20:46:00.481Z,18.60
2022-08-05T20:48:27.877Z,18.51
2022-08-05T20:50:54.447Z,18.46
2022-08-05T20:53:37.057Z,18.43
2022-08-05T20:56:09.515Z,18.34
2022-08-05T20:58:36.956Z,18.27
2022-08-05T21:01:04.522Z,18.19
2022-08-05T21:03:34.391Z,18.11
2022-08-05T21:06:02.040Z,18.05
2022-08-05T21:08:41.576Z,17.96
2022-08-05T21:11:12.976Z,17.89
2022-08-05T21:13:59.163Z,17.84
2022-08-05T21:16:30.184Z,17.80
2022-08-05T21:19:01.601Z,17.77
2022-08-05T21:21:43.860Z,17.70
2022-08-05T21:24:17.177Z,17.64
2022-08-05T21:26:53.713Z,17.63
2022-08-05T21:29:31.564Z,17.61
2022-08-05T21:31:59.483Z,17.60
2022-08-05T21:34:25.929Z,17.55
2022-08-05T21:36:54.775Z,17.52
2022-08-05T21:39:26.742Z,17.50
2022-08-05T21:42:00.913Z,17.46
2022-08-05T21:44:28.436Z,17.44
2022-08-05T21:46:55.651Z,17.41
2022-08-05T21:49:48.544Z,17.38
2022-08-05T21:52:22.710Z,17.29
2022-08-05T21:54:55.342Z,17.19
2022-08-05T21:57:31.319Z,17.14
2022-08-05T22:00:10.956Z,17.10
2022-08-05T22:02:38.133Z,17.07
2022-08-05T22:05:05.268Z,17.04
2022-08-05T22:07:39.801Z,17.02
2022-08-05T22:10:27.105Z,16.98
2022-08-05T22:12:57.367Z,16.97
2022-08-05T22:16:04.680Z,16.94
2022-08-05T22:18:11.167Z,16.85
2022-08-05T22:20:39.137Z,16.80
2022-08-05T22:24:01.882Z,16.81
2022-08-05T22:26:31.612Z,16.82
2022-08-05T22:29:00.125Z,16.84
2022-08-05T22:31:30.271Z,16.81
2022-08-05T22:34:01.391Z,16.79
2022-08-05T22:36:29.273Z,16.76
2022-08-05T22:38:56.232Z,16.73
2022-08-05T22:41:26.504Z,16.70
2022-08-05T22:44:11.829Z,16.65
2022-08-05T22:46:40.878Z,16.61
2022-08-05T22:49:23.225Z,16.54
2022-08-05T22:52:04.580Z,16.50
2022-08-05T22:54:38.785Z,16.44
2022-08-05T22:57:06.436Z,16.40
2022-08-05T22:59:46.405Z,16.34
2022-08-05T23:02:18.036Z,16.28
2022-08-05T23:04:51.405Z,16.26
2022-08-05T23:07:22.132Z,16.20
2022-08-05T23:09:58.231Z,16.18
2022-08-05T23:12:32.508Z,16.15
2022-08-05T23:15:03.558Z,16.13
2022-08-05T23:17:35.086Z,16.11
2022-08-05T23:20:18.978Z,16.03
2022-08-05T23:22:49.971Z,15.99
2022-08-05T23:25:51.047Z,15.96
2022-08-05T23:28:08.866Z,15.96
2022-08-05T23:30:39.695Z,15.91
2022-08-05T23:33:15.949Z,15.89
2022-08-05T23:35:43.198Z,15.84
2022-08-05T23:38:11.996Z,15.80
2022-08-05T23:40:38.733Z,15.78
2022-08-05T23:43:11.495Z,15.72
2022-08-05T23:45:52.351Z,15.70
2022-08-05T23:48:19.715Z,15.66
2022-08-05T23:50:46.280Z,15.62
2022-08-05T23:53:22.458Z,15.62
2022-08-05T23:55:49.556Z,15.61
2022-08-05T23:58:31.740Z,15.60
